createdAt,value
2023-03-05T00:00:21.537Z,9.70
2023-03-05T00:03:11.129Z,10.12
2023-03-05T00:05:40.762Z,9.55
2023-03-05T00:08:11.564Z,9.26
2023-03-05T00:10:40.902Z,9.51
2023-03-05T00:13:10.486Z,9.85
2023-03-05T00:15:43.390Z,10.04
2023-03-05T00:18:12.878Z,9.70
2023-03-05T00:20:42.070Z,9.94
2023-03-05T00:23:13.080Z,9.71
2023-03-05T00:25:42.389Z,9.67
2023-03-05T00:28:12.195Z,9.39
2023-03-05T00:30:41.916Z,9.16
2023-03-05T00:33:13.044Z,9.76
2023-03-05T00:35:43.042Z,9.83
2023-03-05T00:38:14.650Z,9.68
2023-03-05T00:40:44.164Z,9.35
2023-03-05T00:43:13.806Z,9.69
2023-03-05T00:45:43.198Z,10.00
2023-03-05T00:48:12.890Z,9.42
2023-03-05T00:50:42.427Z,9.06
2023-03-05T00:53:13.335Z,8.75
2023-03-05T00:55:42.722Z,8.72
2023-03-05T00:58:12.386Z,8.45
2023-03-05T01:00:42.154Z,9.05
2023-03-05T01:03:11.890Z,9.30
2023-03-05T01:05:41.261Z,9.94
2023-03-05T01:08:12.320Z,9.61
2023-03-05T01:10:41.917Z,9.13
2023-03-05T01:13:11.664Z,9.30
2023-03-05T01:15:40.955Z,9.12
2023-03-05T01:18:10.690Z,8.74
2023-03-05T01:20:40.117Z,9.04
2023-03-05T01:23:09.669Z,9.55
2023-03-05T01:25:40.467Z,9.69
2023-03-05T01:28:10.678Z,10.19
2023-03-05T01:30:40.331Z,10.58
2023-03-05T01:33:09.817Z,10.46
2023-03-05T01:35:39.289Z,10.34
2023-03-05T01:38:09.225Z,10.40
2023-03-05T01:40:40.102Z,10.69
2023-03-05T01:43:26.556Z,10.42
2023-03-05T01:46:29.027Z,10.43
2023-03-05T01:49:11.622Z,10.47
2023-03-05T01:51:47.261Z,9.95
2023-03-05T01:54:18.626Z,10.05
2023-03-05T01:56:51.617Z,10.13
2023-03-05T01:59:23.317Z,9.90
2023-03-05T02:01:56.674Z,10.18
2023-03-05T02:04:32.028Z,10.18
2023-03-05T02:07:01.969Z,10.22
2023-03-05T02:09:31.706Z,10.24
2023-03-05T02:12:02.573Z,10.30
2023-03-05T02:14:32.680Z,10.12
2023-03-05T02:17:02.181Z,9.81
2023-03-05T02:19:46.855Z,9.58
2023-03-05T02:22:19.752Z,10.10
2023-03-05T02:24:49.492Z,9.38
2023-03-05T02:27:20.317Z,10.05
2023-03-05T02:29:50.471Z,10.05
2023-03-05T02:32:19.820Z,9.71
2023-03-05T02:34:50.391Z,10.08
2023-03-05T02:37:21.530Z,9.99
2023-03-05T02:39:53.890Z,9.24
2023-03-05T02:42:23.765Z,8.95
2023-03-05T02:44:53.928Z,9.30
2023-03-05T02:47:23.305Z,8.96
2023-03-05T02:49:53.378Z,9.34
2023-03-05T02:52:25.544Z,9.43
2023-03-05T02:54:55.132Z,8.88
2023-03-05T02:57:26.328Z,9.48
2023-03-05T02:59:57.616Z,9.74
2023-03-05T03:02:27.050Z,9.23
2023-03-05T03:04:56.892Z,9.08
2023-03-05T03:07:27.656Z,8.94
2023-03-05T03:09:57.449Z,9.21
2023-03-05T03:12:26.825Z,8.87
2023-03-05T03:14:56.373Z,8.76
2023-03-05T03:17:25.633Z,9.05
2023-03-05T03:19:55.096Z,10.18
2023-03-05T03:22:24.361Z,9.73
2023-03-05T03:24:55.747Z,9.68
2023-03-05T03:27:25.162Z,9.63
2023-03-05T03:29:54.833Z,9.55
2023-03-05T03:33:48.620Z,9.14
2023-03-05T03:36:18.509Z,9.52
2023-03-05T03:38:47.774Z,9.55
2023-03-05T03:41:18.979Z,9.73
2023-03-05T03:43:48.279Z,9.49
2023-03-05T03:46:17.920Z,8.94
2023-03-05T03:48:50.675Z,9.53
2023-03-05T03:51:20.156Z,10.52
2023-03-05T03:53:49.327Z,9.32
2023-03-05T03:56:20.385Z,8.59
2023-03-05T03:58:52.213Z,8.97
2023-03-05T04:01:22.388Z,9.79
2023-03-05T04:03:51.622Z,9.91
2023-03-05T04:06:21.169Z,8.42
2023-03-05T04:08:50.460Z,8.43
2023-03-05T04:11:21.779Z,9.27
2023-03-05T04:13:51.441Z,9.66
2023-03-05T04:16:22.062Z,9.49
2023-03-05T04:18:51.453Z,9.61
2023-03-05T04:21:21.313Z,10.29
2023-03-05T04:23:50.695Z,10.04
2023-03-05T04:26:21.677Z,9.30
2023-03-05T04:28:50.951Z,9.14
2023-03-05T04:31:21.050Z,9.28
2023-03-05T04:33:50.418Z,9.05
2023-03-05T04:36:20.030Z,8.55
2023-03-05T04:38:49.381Z,9.22
2023-03-05T04:41:20.528Z,9.62
2023-03-05T04:43:49.844Z,9.73
2023-03-05T04:46:19.698Z,8.40
2023-03-05T04:48:49.032Z,9.17
2023-03-05T04:51:18.531Z,9.11
2023-03-05T04:53:47.893Z,9.75
2023-03-05T04:56:17.542Z,9.14
2023-03-05T04:58:48.454Z,9.39
2023-03-05T05:01:18.117Z,9.11
2023-03-05T05:03:47.470Z,9.08
2023-03-05T05:06:17.037Z,9.10
2023-03-05T05:08:46.567Z,9.36
2023-03-05T05:11:16.650Z,9.65
2023-03-05T05:13:47.261Z,9.47
2023-03-05T05:16:16.905Z,9.42
2023-03-05T05:18:46.154Z,9.57
2023-03-05T05:21:18.621Z,8.98
2023-03-05T05:23:48.239Z,9.41
2023-03-05T05:26:17.823Z,9.16
2023-03-05T05:28:49.096Z,9.52
2023-03-05T05:31:19.117Z,9.33
2023-03-05T05:33:49.889Z,8.92
2023-03-05T05:36:22.405Z,9.58
2023-03-05T05:38:51.766Z,9.66
2023-03-05T05:41:22.025Z,9.72
2023-03-05T05:43:52.688Z,9.76
2023-03-05T05:46:23.489Z,9.59
2023-03-05T05:48:52.996Z,9.84
2023-03-05T05:51:24.754Z,9.49
2023-03-05T05:53:54.297Z,9.36
2023-03-05T05:56:23.902Z,9.36
2023-03-05T05:58:55.340Z,9.65
2023-03-05T06:01:28.308Z,9.32
2023-03-05T06:03:58.109Z,9.56
2023-03-05T06:06:28.944Z,9.86
2023-03-05T06:08:58.403Z,9.73
2023-03-05T06:11:28.093Z,10.42
2023-03-05T06:13:58.838Z,10.33
2023-03-05T06:16:28.455Z,9.93
2023-03-05T06:18:57.891Z,9.99
2023-03-05T06:21:27.498Z,10.19
2023-03-05T06:23:58.800Z,10.68
2023-03-05T06:26:28.667Z,10.45
2023-03-05T06:28:59.444Z,10.04
2023-03-05T06:31:30.718Z,10.13
2023-03-05T06:34:02.396Z,10.59
2023-03-05T06:36:32.578Z,9.44
2023-03-05T06:39:01.952Z,10.50
2023-03-05T06:41:32.770Z,9.56
2023-03-05T06:44:04.426Z,10.42
2023-03-05T06:46:35.655Z,10.51
2023-03-05T06:49:07.120Z,10.63
2023-03-05T06:51:38.085Z,10.05
2023-03-05T06:54:09.557Z,10.47
2023-03-05T06:56:41.408Z,10.60
2023-03-05T06:59:13.800Z,9.89
2023-03-05T07:01:43.890Z,9.95
2023-03-05T07:04:14.225Z,10.49
2023-03-05T07:06:44.612Z,10.35
2023-03-05T07:09:16.722Z,10.16
2023-03-05T07:11:46.655Z,9.47
2023-03-05T07:14:17.569Z,9.88
2023-03-05T07:16:47.178Z,10.92
2023-03-05T07:19:16.503Z,10.65
2023-03-05T07:21:46.289Z,10.45
2023-03-05T07:24:15.595Z,9.92
2023-03-05T07:26:46.448Z,9.56
2023-03-05T07:29:18.220Z,10.28
2023-03-05T07:31:48.349Z,10.18
2023-03-05T07:34:17.702Z,10.67
2023-03-05T07:36:47.815Z,10.65
2023-03-05T07:39:18.703Z,10.29
2023-03-05T07:41:51.063Z,10.80
2023-03-05T07:44:21.830Z,11.35
2023-03-05T07:46:51.453Z,11.48
2023-03-05T07:49:20.926Z,11.72
2023-03-05T07:51:50.511Z,11.41
2023-03-05T07:54:20.027Z,11.02
2023-03-05T07:56:49.664Z,10.63
2023-03-05T07:59:20.369Z,11.62
2023-03-05T08:01:49.983Z,11.58
2023-03-05T08:04:19.293Z,10.44
2023-03-05T08:06:50.081Z,11.74
2023-03-05T08:09:19.958Z,12.01
2023-03-05T08:11:49.433Z,11.27
2023-03-05T08:14:20.221Z,11.35
2023-03-05T08:16:52.308Z,10.71
2023-03-05T08:19:21.736Z,11.54
2023-03-05T08:21:51.352Z,11.63
2023-03-05T08:24:20.563Z,10.89
2023-03-05T08:26:50.054Z,10.68
2023-03-05T08:29:20.672Z,12.16
2023-03-05T08:31:51.244Z,12.52
2023-03-05T08:34:20.837Z,12.36
2023-03-05T08:36:50.329Z,12.49
2023-03-05T08:39:21.246Z,11.84
2023-03-05T08:41:51.000Z,12.14
2023-03-05T08:44:21.592Z,12.24
2023-03-05T08:46:51.449Z,13.19
2023-03-05T08:49:20.698Z,12.54
2023-03-05T08:51:50.206Z,12.81
2023-03-05T08:54:19.655Z,13.18
2023-03-05T08:56:50.166Z,12.15
2023-03-05T08:59:20.834Z,12.29
2023-03-05T09:01:50.741Z,13.59
2023-03-05T09:04:20.068Z,11.55
2023-03-05T09:06:49.833Z,13.64
2023-03-05T09:09:21.417Z,14.27
2023-03-05T09:11:52.137Z,12.63
2023-03-05T09:14:22.784Z,11.77
2023-03-05T09:16:52.312Z,12.14
2023-03-05T09:19:21.704Z,12.40
2023-03-05T09:21:51.363Z,12.81
2023-03-05T09:24:20.628Z,14.67
2023-03-05T09:26:50.372Z,14.14
2023-03-05T09:29:19.743Z,13.84
2023-03-05T09:31:54.248Z,13.61
2023-03-05T09:34:24.016Z,12.60
2023-03-05T09:36:53.488Z,13.14
2023-03-05T09:39:22.723Z,12.89
2023-03-05T09:42:12.871Z,13.45
2023-03-05T09:44:48.495Z,14.00
2023-03-05T09:47:36.444Z,14.19
2023-03-05T09:50:13.864Z,15.54
2023-03-05T09:52:48.573Z,13.81
2023-03-05T09:55:26.379Z,13.57
2023-03-05T09:58:04.478Z,14.46
2023-03-05T10:00:39.804Z,14.02
2023-03-05T10:03:14.606Z,15.68
2023-03-05T10:06:05.364Z,15.51
2023-03-05T10:08:48.267Z,15.88
2023-03-05T10:11:42.107Z,16.48
2023-03-05T10:14:15.873Z,16.86
2023-03-05T10:17:01.139Z,17.91
2023-03-05T10:19:55.798Z,17.15
2023-03-05T10:22:29.454Z,17.45
2023-03-05T10:25:14.954Z,17.84
2023-03-05T10:27:54.226Z,17.91
2023-03-05T10:30:55.371Z,19.45
2023-03-05T10:33:33.585Z,20.88
2023-03-05T10:36:41.638Z,21.45
2023-03-05T10:39:36.612Z,25.46
2023-03-05T10:42:17.682Z,24.16
2023-03-05T10:44:49.252Z,24.33
2023-03-05T10:47:25.178Z,19.18
2023-03-05T10:49:56.231Z,16.95
2023-03-05T10:52:34.166Z,15.87
2023-03-05T10:55:13.438Z,20.58
2023-03-05T10:57:43.146Z,25.71
2023-03-05T11:00:20.967Z,29.31
2023-03-05T11:03:02.349Z,28.88
2023-03-05T11:05:42.820Z,29.26
2023-03-05T11:08:35.600Z,24.16
2023-03-05T11:11:11.827Z,22.10
2023-03-05T11:13:53.050Z,23.91
2023-03-05T11:16:25.392Z,23.39
2023-03-05T11:19:19.999Z,25.44
2023-03-05T11:22:06.465Z,25.19
2023-03-05T11:24:37.773Z,26.11
2023-03-05T11:27:25.617Z,25.96
2023-03-05T11:29:55.393Z,27.46
2023-03-05T11:32:27.338Z,29.62
2023-03-05T11:34:59.150Z,28.40
2023-03-05T11:37:30.436Z,24.89
2023-03-05T11:40:23.744Z,22.94
2023-03-05T11:42:57.502Z,21.06
2023-03-05T11:45:30.300Z,20.20
2023-03-05T11:48:07.344Z,19.02
2023-03-05T11:50:39.531Z,21.48
2023-03-05T11:53:15.913Z,24.00
2023-03-05T11:55:50.221Z,26.27
2023-03-05T11:58:32.640Z,27.68
2023-03-05T12:01:04.393Z,26.50
2023-03-05T12:03:37.208Z,30.89
2023-03-05T12:06:17.867Z,26.69
2023-03-05T12:08:50.809Z,28.74
2023-03-05T12:11:26.417Z,27.30
2023-03-05T12:14:00.371Z,26.75
2023-03-05T12:16:34.594Z,30.07
2023-03-05T12:19:25.334Z,29.51
2023-03-05T12:21:55.946Z,29.24
2023-03-05T12:24:41.207Z,30.93
2023-03-05T12:27:32.304Z,30.06
2023-03-05T12:30:02.707Z,29.99
2023-03-05T12:33:02.387Z,24.65
2023-03-05T12:35:36.072Z,24.68
2023-03-05T12:38:30.238Z,23.72
2023-03-05T12:41:35.781Z,24.35
2023-03-05T12:44:24.658Z,28.26
2023-03-05T12:47:23.756Z,31.79
2023-03-05T12:49:53.416Z,30.95
2023-03-05T12:52:28.179Z,31.29
2023-03-05T12:55:21.442Z,32.26
2023-03-05T12:57:54.762Z,24.98
2023-03-05T13:00:33.859Z,24.82
2023-03-05T13:03:06.251Z,22.89
2023-03-05T13:05:39.290Z,21.71
2023-03-05T13:08:19.592Z,18.28
2023-03-05T13:10:54.355Z,23.24
2023-03-05T13:13:25.619Z,25.61
2023-03-05T13:15:57.871Z,26.47
2023-03-05T13:18:29.147Z,22.79
2023-03-05T13:21:06.476Z,20.47
2023-03-05T13:23:36.788Z,18.29
2023-03-05T13:26:15.586Z,16.72
2023-03-05T13:28:46.125Z,17.05
2023-03-05T13:31:19.302Z,23.04
2023-03-05T13:33:54.487Z,25.82
2023-03-05T13:36:26.092Z,26.06
2023-03-05T13:38:56.023Z,27.67
2023-03-05T13:41:27.686Z,29.34
2023-03-05T13:43:59.123Z,31.15
2023-03-05T13:46:33.075Z,28.60
2023-03-05T13:49:22.198Z,27.97
2023-03-05T13:51:54.771Z,29.68
2023-03-05T13:54:26.040Z,27.53
2023-03-05T13:56:58.787Z,28.88
2023-03-05T13:59:31.498Z,31.47
2023-03-05T14:02:05.931Z,30.79
2023-03-05T14:04:38.650Z,31.34
2023-03-05T14:07:22.606Z,29.65
2023-03-05T14:09:53.195Z,29.88
2023-03-05T14:12:28.524Z,29.24
2023-03-05T14:14:59.739Z,26.85
2023-03-05T14:17:41.869Z,28.49
2023-03-05T14:20:24.893Z,29.17
2023-03-05T14:22:57.028Z,29.54
2023-03-05T14:25:39.845Z,29.39
2023-03-05T14:28:27.308Z,29.87
2023-03-05T14:30:58.470Z,28.52
2023-03-05T14:33:34.401Z,26.85
2023-03-05T14:36:06.010Z,27.35
2023-03-05T14:38:36.373Z,25.39
2023-03-05T14:41:21.337Z,26.25
2023-03-05T14:43:50.971Z,25.51
2023-03-05T14:46:20.228Z,25.01
2023-03-05T14:48:54.492Z,25.39
2023-03-05T14:51:25.311Z,26.05
2023-03-05T14:53:55.153Z,24.50
2023-03-05T14:56:27.934Z,24.65
2023-03-05T14:58:59.194Z,24.50
2023-03-05T15:01:28.695Z,19.42
2023-03-05T15:04:01.132Z,20.70
2023-03-05T15:06:34.203Z,21.46
2023-03-05T15:09:05.575Z,20.89
2023-03-05T15:11:35.703Z,19.46
2023-03-05T15:14:05.297Z,20.28
2023-03-05T15:16:34.570Z,22.02
2023-03-05T15:19:05.601Z,19.24
2023-03-05T15:21:36.983Z,20.64
2023-03-05T15:24:07.747Z,19.90
2023-03-05T15:26:37.815Z,22.17
2023-03-05T15:29:07.618Z,20.35
2023-03-05T15:31:38.927Z,20.89
2023-03-05T15:34:10.231Z,21.26
2023-03-05T15:36:39.506Z,21.94
2023-03-05T15:39:09.073Z,22.73
2023-03-05T15:41:38.464Z,22.94
2023-03-05T15:44:10.604Z,20.86
2023-03-05T15:46:40.060Z,21.38
2023-03-05T15:49:10.968Z,21.03
2023-03-05T15:51:41.912Z,20.43
2023-03-05T15:54:12.599Z,18.63
2023-03-05T15:56:45.178Z,17.27
2023-03-05T15:59:19.935Z,16.14
2023-03-05T16:01:51.946Z,14.83
2023-03-05T16:04:23.024Z,14.02
2023-03-05T16:06:53.017Z,14.00
2023-03-05T16:09:23.347Z,14.15
2023-03-05T16:11:52.775Z,14.11
2023-03-05T16:14:24.602Z,13.38
2023-03-05T16:16:56.789Z,13.85
2023-03-05T16:19:29.083Z,13.26
2023-03-05T16:21:58.475Z,13.46
2023-03-05T16:24:28.169Z,13.69
2023-03-05T16:26:57.888Z,13.08
2023-03-05T16:29:30.720Z,12.41
2023-03-05T16:32:01.208Z,11.85
2023-03-05T16:34:34.573Z,11.86
2023-03-05T16:37:06.952Z,13.25
2023-03-05T16:39:36.875Z,12.86
2023-03-05T16:42:10.702Z,12.92
2023-03-05T16:44:40.721Z,12.01
2023-03-05T16:47:12.071Z,11.98
2023-03-05T16:49:44.375Z,12.21
2023-03-05T16:52:25.971Z,12.55
2023-03-05T16:54:58.235Z,12.21
2023-03-05T16:57:29.213Z,12.17
2023-03-05T17:00:01.572Z,12.59
2023-03-05T17:02:32.736Z,13.08
2023-03-05T17:05:06.333Z,12.43
2023-03-05T17:07:35.729Z,12.20
2023-03-05T17:10:05.864Z,11.32
2023-03-05T17:12:35.212Z,11.59
2023-03-05T17:15:05.037Z,11.93
2023-03-05T17:17:35.222Z,11.61
2023-03-05T17:20:07.484Z,12.36
2023-03-05T17:22:36.841Z,12.46
2023-03-05T17:25:07.810Z,12.44
2023-03-05T17:27:37.564Z,12.93
2023-03-05T17:30:08.670Z,12.79
2023-03-05T17:32:38.140Z,12.65
2023-03-05T17:35:18.192Z,12.49
2023-03-05T17:37:47.819Z,12.00
2023-03-05T17:40:18.307Z,12.34
2023-03-05T17:42:47.905Z,11.30
2023-03-05T17:45:18.571Z,12.01
2023-03-05T17:47:48.487Z,12.33
2023-03-05T17:50:20.264Z,12.25
2023-03-05T17:52:50.062Z,11.99
2023-03-05T17:55:21.983Z,12.13
2023-03-05T17:57:53.087Z,11.27
2023-03-05T18:00:27.147Z,11.21
2023-03-05T18:03:01.801Z,11.66
2023-03-05T18:05:33.381Z,10.97
2023-03-05T18:08:03.873Z,11.34
2023-03-05T18:10:34.098Z,11.75
2023-03-05T18:13:03.571Z,11.10
2023-03-05T18:15:33.488Z,11.63
2023-03-05T18:18:03.134Z,11.29
2023-03-05T18:20:36.097Z,11.76
2023-03-05T18:23:07.313Z,11.28
2023-03-05T18:25:37.534Z,11.39
2023-03-05T18:28:12.053Z,11.15
2023-03-05T18:30:42.664Z,10.79
2023-03-05T18:33:18.582Z,10.73
2023-03-05T18:35:52.422Z,10.83
2023-03-05T18:38:22.615Z,10.79
2023-03-05T18:40:52.590Z,10.37
2023-03-05T18:43:23.179Z,10.47
2023-03-05T18:45:54.073Z,10.42
2023-03-05T18:48:24.097Z,10.32
2023-03-05T18:50:55.832Z,10.18
2023-03-05T18:53:26.110Z,10.23
2023-03-05T18:55:55.740Z,11.34
2023-03-05T18:58:26.103Z,10.84
2023-03-05T19:00:55.941Z,11.06
2023-03-05T19:03:25.298Z,10.39
2023-03-05T19:05:56.577Z,10.40
2023-03-05T19:08:25.872Z,10.49
2023-03-05T19:10:55.457Z,10.31
2023-03-05T19:13:41.033Z,9.96
2023-03-05T19:16:12.675Z,10.64
2023-03-05T19:19:15.446Z,10.04
2023-03-05T19:21:48.355Z,10.95
2023-03-05T19:24:18.105Z,11.00
2023-03-05T19:26:48.045Z,11.13
2023-03-05T19:29:17.786Z,11.23
2023-03-05T19:31:47.375Z,10.39
2023-03-05T19:34:16.675Z,10.88
2023-03-05T19:36:47.941Z,10.70
2023-03-05T19:39:17.600Z,10.70
2023-03-05T19:41:49.315Z,10.62
2023-03-05T19:44:20.495Z,11.30
2023-03-05T19:46:50.434Z,10.33
2023-03-05T19:49:20.216Z,10.76
2023-03-05T19:51:54.569Z,10.54
2023-03-05T19:54:24.658Z,10.53
2023-03-05T19:56:56.009Z,11.12
2023-03-05T19:59:25.609Z,10.74
2023-03-05T20:01:57.577Z,9.85
2023-03-05T20:04:28.098Z,9.38
2023-03-05T20:06:59.230Z,10.08
2023-03-05T20:09:28.532Z,10.36
2023-03-05T20:12:03.055Z,10.56
2023-03-05T20:14:32.300Z,9.47
2023-03-05T20:17:02.746Z,9.72
2023-03-05T20:19:32.084Z,9.93
2023-03-05T20:22:02.989Z,10.48
2023-03-05T20:24:32.453Z,10.60
2023-03-05T20:27:02.332Z,11.38
2023-03-05T20:29:31.579Z,10.52
2023-03-05T20:32:01.300Z,10.51
2023-03-05T20:34:31.275Z,10.54
2023-03-05T20:37:06.100Z,10.44
2023-03-05T20:39:35.755Z,10.16
2023-03-05T20:42:05.719Z,10.29
2023-03-05T20:44:34.999Z,10.35
2023-03-05T20:47:40.987Z,10.43
2023-03-05T20:50:11.650Z,10.35
2023-03-05T20:52:42.951Z,11.13
2023-03-05T20:55:13.236Z,10.93
2023-03-05T20:57:44.190Z,10.77
2023-03-05T21:00:14.570Z,10.77
2023-03-05T21:02:44.228Z,10.93
2023-03-05T21:05:14.592Z,11.07
2023-03-05T21:07:46.366Z,10.65
2023-03-05T21:10:16.566Z,10.60
2023-03-05T21:12:48.439Z,11.05
2023-03-05T21:15:19.594Z,10.98
2023-03-05T21:17:49.308Z,11.15
2023-03-05T21:20:21.265Z,11.10
2023-03-05T21:22:52.316Z,9.93
2023-03-05T21:25:22.161Z,10.41
2023-03-05T21:27:55.788Z,10.76
2023-03-05T21:30:31.424Z,10.29
2023-03-05T21:33:02.314Z,10.13
2023-03-05T21:35:34.042Z,11.15
2023-03-05T21:38:08.411Z,10.18
2023-03-05T21:40:43.532Z,11.00
2023-03-05T21:43:14.434Z,10.52
2023-03-05T21:45:44.261Z,10.73
2023-03-05T21:48:13.928Z,10.75
2023-03-05T21:50:44.643Z,11.21
2023-03-05T21:53:16.784Z,11.25
2023-03-05T21:56:26.070Z,10.96
2023-03-05T21:58:56.115Z,11.33
2023-03-05T22:01:25.369Z,10.88
2023-03-05T22:03:55.166Z,11.19
2023-03-05T22:06:24.615Z,10.98
2023-03-05T22:08:55.564Z,10.49
2023-03-05T22:11:24.953Z,10.08
2023-03-05T22:13:54.577Z,10.30
2023-03-05T22:16:24.886Z,10.57
2023-03-05T22:18:55.008Z,10.54
2023-03-05T22:21:27.015Z,10.18
2023-03-05T22:23:58.973Z,10.10
2023-03-05T22:26:35.510Z,10.53
2023-03-05T22:29:05.551Z,10.28
2023-03-05T22:31:34.711Z,10.69
2023-03-05T22:34:04.434Z,10.78
2023-03-05T22:36:33.882Z,10.93
2023-03-05T22:39:06.009Z,10.77
2023-03-05T22:41:35.534Z,10.94
2023-03-05T22:44:05.119Z,10.56
2023-03-05T22:46:34.495Z,10.59
2023-03-05T22:49:04.200Z,10.76
2023-03-05T22:51:33.480Z,10.90
2023-03-05T22:54:04.439Z,10.69
2023-03-05T22:56:33.752Z,10.24
2023-03-05T22:59:03.464Z,10.28
2023-03-05T23:01:32.782Z,10.32
2023-03-05T23:04:50.145Z,10.64
2023-03-05T23:07:20.570Z,10.68
2023-03-05T23:09:55.480Z,10.50
2023-03-05T23:12:26.184Z,10.23
2023-03-05T23:14:56.114Z,9.80
2023-03-05T23:17:25.306Z,10.20
2023-03-05T23:19:54.804Z,10.46
2023-03-05T23:22:24.350Z,10.61
2023-03-05T23:24:55.281Z,10.43
2023-03-05T23:27:24.655Z,10.30
2023-03-05T23:30:17.425Z,9.78
2023-03-05T23:32:49.564Z,10.16
2023-03-05T23:35:21.718Z,10.18
2023-03-05T23:37:51.224Z,10.02
2023-03-05T23:40:23.898Z,10.13
2023-03-05T23:42:54.257Z,10.30
2023-03-05T23:45:25.222Z,10.23
2023-03-05T23:47:54.601Z,10.41
2023-03-05T23:50:25.865Z,9.85
2023-03-05T23:52:55.458Z,9.43
2023-03-05T23:55:28.872Z,9.56
2023-03-05T23:57:58.345Z,9.94
